Airfield :
LOGIN :

Register | Disclaimer

   EN    FR    IT 

 










Legend :    VFR   Marginal VFR   IFR   Intensive IFR   Very Intensive IFR
Visi :
Ceiling :
>= 8 km
>= 3000ft
5 to 8 km
1000 to 3000 ft
1500m to 5 km
500 to 1000 ft
800 to 1500m
200 to 500 ft
< 800m
< 200 ft
Symbols :   Thunderstorms  Fog  Heavy snow  Heavy precipitations  Wind > 20 kt
SIGMETs :     Misc.  Thunderstorms  Icing  Turbulence  Mountain Waves  Volcanic Ashes






- Airport Elevation : 171 ft
- IATA code : EGC


LFBE - Bergerac

CURRENT METAR :
  • 232030Z AUTO 24004KT 9999 ///CB 17/15 Q1020

EXPIRED METARs :
  • 232000Z AUTO VRB02KT 9999 FEW009/// SCT074/// OVC084/// ///CB 17/16 Q1019 TEMPO 4000 SHRA
  • 231930Z AUTO 30004KT 9999 FEW010/// BKN074/// OVC092/// ///CB 17/16 Q1019 TEMPO 4000 SHRA
  • 231900Z AUTO 30009KT 9999 FEW030/// SCT045/// BKN074/// ///CB 18/15 Q1019 TEMPO 4000 SHRA
  • 231830Z AUTO 24007KT 9999 -RA FEW023/// SCT030/// OVC080/// ///CB 19/16 Q1019 TEMPO 4000 SHRA
  • 231800Z AUTO 29004KT 9999 ///CB 19/15 Q1019 TEMPO 4000 SHRA BKN012 SCT020CB

TAF TAF LFBE
Valid from the 23 at 12:00 until the 24 at 12:00 UTC


231100Z 2312/2412 VRB02KT 9999 SCT020 BKN060
TEMPO 2312/2410 4000 SHRA SCT020TCU
PROB30
TEMPO 2313/2319 2000 TSRA BKN012 SCT020CB
TEMPO 2316/2319 27007KT
PROB40 2322/2410 BKN006
BECMG 2404/2406 28005KT
BECMG 2410/2412 SCT008



MET'MAP, your aeronautical weather chart ! - Copyright ORBIFLY December 2007 - Disclaimer

ORBIFLY MET'MAP TEAM :

Programming & Development : Alexandra Zaïnal
Concept & original design : Baudouin d'Aumeries
Assistance for programming : Marc-Olivier Méhu
Technical & hardware support : Manuel Goepfert

Contact : metmap@orbifly.com




SOURCES & CREDITS :

   NOAA